Terminal Aerodrome Forecast
Issued by NWS

Home | Current Version | Previous Version | Text Only | Print | Product List | Glossary On
Versions: 1 2 3 4 5 6 7 8 9 10 11 12 13 14 15 16
166
FTUS44 KMAF 241120
TAFPEQ
TAF
KPEQ 241120Z 2412/2512 25006KT P6SM FEW250
     FM241700 27025G30KT P6SM SCT250
     FM250000 29015KT P6SM FEW200
     FM250300 27008KT P6SM FEW200=

USA.gov is the U.S. government's official web portal to all federal, state and local government web resources and services.